aviador You're here:

NWWW Decoded Metar

NOUMEA in NEW CALEDONIA
Report Time2017-11-23 21:30:00
UTC Time2017-11-23 22:02:28
Flight Rules vfr VFR
Wind040° at 05 kt
W.Decomp.*RWY 11: 0.7 kt HW 5 kt LCW
W.Rank040° ranks 12
Current wind is above 040° avg. (4.7)
Visibility9999 m
Phenomena:N/A
Clouds:Overcast 048 Hf
Expected CloudBase > 4,000 ft AGL from Temp-Dew spread
Ceiling4,800 ft
Temp27°C (ISA +12)
Dew Point17°C (54% RH)
Heat Index27.7°C
QNH1013 hPa
Density Alt1,706 ft
Elevation52 ft
Report Wrong Elevation
Raw Report
NWWW 232130Z AUTO 04005KT 360V090 9999 OVC048 27/17 Q1013
NOSIG=

Extra information for NWWW:More info

Metar Taf Metar & Taf Last 4 Metars F.Rules Stats Wind Profile Meteogram Temp Stats Airport Information Weather charts Add Link Nearby VenuesMetar ALERT Operation Metar Decoded Social comments